createdAt,value
2018-02-09T00:00:50.846Z,47.97
2018-02-09T00:03:18.315Z,47.28
2018-02-09T00:05:45.942Z,47.17
2018-02-09T00:08:13.487Z,45.58
2018-02-09T00:10:40.988Z,46.15
2018-02-09T00:13:08.452Z,46.47
2018-02-09T00:15:36.114Z,44.88
2018-02-09T00:18:04.219Z,46.60
2018-02-09T00:20:31.696Z,45.53
2018-02-09T00:22:59.936Z,45.38
2018-02-09T00:25:27.496Z,45.35
2018-02-09T00:27:54.976Z,43.95
2018-02-09T00:30:23.214Z,45.05
2018-02-09T00:32:50.726Z,43.28
2018-02-09T00:35:18.967Z,43.00
2018-02-09T00:37:46.434Z,43.42
2018-02-09T00:40:13.909Z,46.42
2018-02-09T00:42:42.235Z,45.03
2018-02-09T00:45:10.507Z,44.50
2018-02-09T00:47:37.997Z,44.70
2018-02-09T00:50:05.470Z,46.67
2018-02-09T00:52:33.728Z,47.78
2018-02-09T00:55:01.206Z,41.65
2018-02-09T00:57:28.813Z,48.05
2018-02-09T00:59:56.361Z,45.40
2018-02-09T01:02:23.857Z,44.70
2018-02-09T01:04:51.326Z,45.67
2018-02-09T01:07:18.903Z,45.50
2018-02-09T01:09:46.423Z,45.10
2018-02-09T01:12:13.876Z,46.80
2018-02-09T01:14:41.352Z,46.03
2018-02-09T01:17:08.870Z,44.90
2018-02-09T01:19:36.340Z,45.60
2018-02-09T01:22:03.809Z,44.72
2018-02-09T01:24:31.283Z,42.20
2018-02-09T01:26:59.543Z,43.42
2018-02-09T01:29:27.102Z,44.03
2018-02-09T01:31:54.590Z,43.78
2018-02-09T01:34:22.068Z,43.72
2018-02-09T01:36:49.632Z,43.95
2018-02-09T01:39:17.156Z,40.17
2018-02-09T01:41:44.713Z,40.38
2018-02-09T01:44:12.990Z,41.95
2018-02-09T01:46:40.509Z,41.78
2018-02-09T01:49:07.996Z,44.63
2018-02-09T01:51:35.493Z,44.55
2018-02-09T01:54:02.981Z,42.92
2018-02-09T01:56:30.467Z,41.22
2018-02-09T01:58:58.522Z,45.58
2018-02-09T02:01:26.750Z,44.97
2018-02-09T02:03:54.977Z,42.67
2018-02-09T02:06:22.429Z,45.30
2018-02-09T02:08:49.890Z,43.33
2018-02-09T02:11:18.107Z,45.55
2018-02-09T02:13:45.601Z,43.08
2018-02-09T02:16:13.082Z,44.20
2018-02-09T02:18:41.352Z,41.80
2018-02-09T02:21:08.807Z,46.58
2018-02-09T02:23:37.150Z,44.30
2018-02-09T02:26:04.617Z,42.35
2018-02-09T02:28:32.065Z,46.37
2018-02-09T02:30:59.573Z,43.35
2018-02-09T02:33:27.040Z,45.75
2018-02-09T02:35:54.534Z,47.62
2018-02-09T02:38:22.038Z,43.75
2018-02-09T02:40:49.511Z,42.72
2018-02-09T02:43:17.772Z,45.42
2018-02-09T02:45:45.240Z,48.20
2018-02-09T02:48:12.731Z,43.78
2018-02-09T02:51:03.107Z,43.70
2018-02-09T02:53:30.626Z,42.72
2018-02-09T02:55:58.172Z,45.15
2018-02-09T02:58:25.737Z,42.55
2018-02-09T03:00:53.225Z,43.00
2018-02-09T03:03:20.676Z,40.60
2018-02-09T03:05:48.155Z,45.70
2018-02-09T03:08:15.652Z,42.70
2018-02-09T03:10:43.112Z,43.78
2018-02-09T03:13:11.350Z,43.15
2018-02-09T03:15:38.909Z,43.05
2018-02-09T03:18:06.431Z,44.17
2018-02-09T03:20:33.915Z,43.67
2018-02-09T03:23:01.369Z,44.97
2018-02-09T03:25:28.927Z,45.78
2018-02-09T03:27:56.377Z,44.70
2018-02-09T03:30:23.856Z,43.15
2018-02-09T03:32:51.302Z,42.08
2018-02-09T03:35:18.785Z,44.20
2018-02-09T03:37:46.310Z,43.53
2018-02-09T03:40:13.775Z,46.47
2018-02-09T03:42:41.271Z,37.05
2018-02-09T03:45:09.528Z,43.38
2018-02-09T03:47:37.056Z,42.97
2018-02-09T03:50:04.614Z,42.67
2018-02-09T03:52:40.116Z,43.55
2018-02-09T03:55:13.722Z,42.35
2018-02-09T04:03:28.773Z,40.85
2018-02-09T04:06:00.893Z,45.12
2018-02-09T04:08:28.380Z,42.47
2018-02-09T04:10:55.838Z,42.20
2018-02-09T04:13:23.327Z,42.13
2018-02-09T04:15:50.802Z,44.83
2018-02-09T04:18:18.804Z,39.42
2018-02-09T04:20:50.494Z,41.65
2018-02-09T04:23:17.974Z,44.28
2018-02-09T04:25:45.440Z,41.80
2018-02-09T04:28:12.886Z,45.53
2018-02-09T04:30:41.131Z,41.63
2018-02-09T04:33:08.624Z,41.67
2018-02-09T04:35:36.850Z,44.00
2018-02-09T04:38:04.321Z,40.53
2018-02-09T04:40:31.780Z,44.03
2018-02-09T04:43:00.151Z,41.88
2018-02-09T04:45:27.701Z,41.05
2018-02-09T04:47:55.248Z,45.53
2018-02-09T04:50:22.727Z,43.13
2018-02-09T04:52:50.191Z,42.60
2018-02-09T04:55:17.810Z,44.38
2018-02-09T04:57:45.268Z,41.40
2018-02-09T05:00:12.979Z,42.97
2018-02-09T05:02:40.549Z,38.78
2018-02-09T05:05:08.031Z,38.95
2018-02-09T05:07:35.558Z,46.67
2018-02-09T05:10:03.084Z,43.13
2018-02-09T05:12:30.619Z,43.60
2018-02-09T05:14:58.975Z,42.28
2018-02-09T05:17:26.526Z,43.95
2018-02-09T05:19:54.015Z,44.33
2018-02-09T05:22:21.476Z,42.38
2018-02-09T05:24:48.937Z,41.47
2018-02-09T05:27:17.199Z,42.35
2018-02-09T05:29:44.681Z,39.67
2018-02-09T05:32:12.272Z,42.55
2018-02-09T05:34:40.603Z,42.28
2018-02-09T05:37:08.062Z,43.35
2018-02-09T05:39:35.567Z,39.92
2018-02-09T05:42:03.791Z,41.95
2018-02-09T05:44:31.248Z,41.37
2018-02-09T05:46:58.763Z,42.60
2018-02-09T05:49:27.031Z,41.50
2018-02-09T05:51:54.495Z,40.03
2018-02-09T05:54:21.985Z,41.13
2018-02-09T05:56:49.446Z,39.17
2018-02-09T05:59:16.910Z,41.78
2018-02-09T06:01:44.416Z,41.55
2018-02-09T06:04:12.710Z,43.75
2018-02-09T06:06:40.562Z,40.97
2018-02-09T06:09:08.069Z,41.95
2018-02-09T06:11:35.579Z,40.05
2018-02-09T06:14:03.895Z,41.25
2018-02-09T06:16:31.381Z,41.47
2018-02-09T06:18:59.707Z,38.30
2018-02-09T06:21:27.219Z,42.28
2018-02-09T06:23:54.829Z,39.65
2018-02-09T06:26:22.296Z,44.20
2018-02-09T06:28:49.789Z,39.28
2018-02-09T06:31:17.270Z,43.30
2018-02-09T06:33:45.555Z,44.20
2018-02-09T06:36:13.174Z,39.63
2018-02-09T06:38:40.635Z,42.40
2018-02-09T06:41:08.140Z,40.83
2018-02-09T06:43:35.688Z,45.53
2018-02-09T06:46:03.930Z,43.05
2018-02-09T06:48:31.432Z,42.53
2018-02-09T06:50:58.929Z,42.40
2018-02-09T06:53:26.442Z,43.90
2018-02-09T06:55:54.694Z,44.42
2018-02-09T06:58:22.912Z,40.40
2018-02-09T07:00:51.252Z,41.42
2018-02-09T07:03:19.468Z,42.60
2018-02-09T07:05:46.962Z,42.88
2018-02-09T07:08:14.511Z,37.38
2018-02-09T07:10:42.084Z,42.28
2018-02-09T07:13:09.651Z,40.90
2018-02-09T07:15:37.157Z,41.58
2018-02-09T07:18:04.629Z,41.63
2018-02-09T07:20:32.082Z,40.42
2018-02-09T07:22:59.570Z,40.60
2018-02-09T07:25:27.840Z,42.30
2018-02-09T07:27:56.078Z,41.63
2018-02-09T07:30:23.524Z,41.40
2018-02-09T07:32:51.099Z,41.83
2018-02-09T07:35:18.582Z,40.85
2018-02-09T07:37:46.830Z,39.97
2018-02-09T07:40:14.313Z,39.65
2018-02-09T07:42:42.644Z,44.97
2018-02-09T07:45:10.150Z,43.55
2018-02-09T07:47:37.704Z,41.97
2018-02-09T07:50:05.949Z,41.63
2018-02-09T07:52:33.447Z,39.70
2018-02-09T07:55:01.703Z,43.20
2018-02-09T07:57:29.170Z,41.75
2018-02-09T07:59:57.438Z,39.35
2018-02-09T08:02:24.888Z,39.90
2018-02-09T08:04:52.480Z,37.50
2018-02-09T08:07:19.924Z,41.45
2018-02-09T08:09:48.160Z,41.35
2018-02-09T08:12:15.666Z,41.97
2018-02-09T08:14:43.255Z,40.83
2018-02-09T08:17:10.854Z,42.08
2018-02-09T08:19:38.306Z,37.83
2018-02-09T08:22:05.799Z,40.60
2018-02-09T08:24:33.260Z,40.05
2018-02-09T08:27:00.819Z,41.63
2018-02-09T08:29:28.319Z,43.90
2018-02-09T08:31:55.753Z,42.67
2018-02-09T08:34:23.224Z,45.03
2018-02-09T08:36:50.688Z,44.13
2018-02-09T08:39:18.166Z,41.63
2018-02-09T08:41:45.693Z,40.42
2018-02-09T08:44:13.225Z,42.00
2018-02-09T08:46:40.675Z,42.47
2018-02-09T08:49:08.188Z,42.50
2018-02-09T08:51:35.657Z,46.70
2018-02-09T08:54:03.159Z,45.15
2018-02-09T08:56:31.233Z,44.28
2018-02-09T08:58:58.730Z,42.72
2018-02-09T09:01:26.201Z,41.35
2018-02-09T09:03:53.697Z,42.45
2018-02-09T09:06:21.162Z,43.67
2018-02-09T09:08:48.721Z,43.40
2018-02-09T09:11:16.184Z,40.20
2018-02-09T09:13:43.748Z,39.50
2018-02-09T09:16:11.250Z,42.62
2018-02-09T09:18:38.727Z,43.90
2018-02-09T09:21:06.193Z,42.03
2018-02-09T09:23:33.667Z,40.72
2018-02-09T09:26:01.216Z,41.35
2018-02-09T09:28:28.673Z,40.88
2018-02-09T09:30:56.140Z,45.45
2018-02-09T09:33:23.655Z,43.22
2018-02-09T09:35:51.881Z,44.40
2018-02-09T09:38:19.372Z,45.30
2018-02-09T09:40:47.001Z,45.05
2018-02-09T09:43:14.472Z,43.22
2018-02-09T09:45:41.987Z,44.40
2018-02-09T09:48:09.432Z,42.67
2018-02-09T09:50:36.928Z,46.60
2018-02-09T09:53:04.459Z,44.95
2018-02-09T09:55:31.933Z,45.20
2018-02-09T09:57:59.382Z,42.80
2018-02-09T10:00:26.974Z,43.83
2018-02-09T10:02:54.474Z,46.72
2018-02-09T10:05:21.959Z,45.33
2018-02-09T10:07:49.418Z,44.17
2018-02-09T10:10:16.961Z,42.25
2018-02-09T10:12:44.443Z,44.45
2018-02-09T10:15:11.879Z,46.85
2018-02-09T10:17:39.373Z,43.05
2018-02-09T10:20:06.922Z,42.78
2018-02-09T10:22:34.406Z,41.97
2018-02-09T10:25:01.872Z,45.75
2018-02-09T10:27:29.613Z,41.30
2018-02-09T10:30:16.593Z,42.67
2018-02-09T10:32:44.252Z,43.22
2018-02-09T10:35:11.738Z,45.83
2018-02-09T10:37:39.271Z,41.63
2018-02-09T10:40:06.743Z,44.55
2018-02-09T10:42:34.278Z,46.03
2018-02-09T10:45:01.796Z,39.75
2018-02-09T10:47:29.270Z,40.60
2018-02-09T10:49:56.721Z,42.70
2018-02-09T10:52:24.191Z,41.30
2018-02-09T10:54:51.706Z,41.30
2018-02-09T10:57:19.155Z,41.22
2018-02-09T10:59:47.429Z,41.03
2018-02-09T11:02:15.705Z,41.22
2018-02-09T11:04:43.952Z,38.30
2018-02-09T11:07:11.402Z,39.33
2018-02-09T11:09:38.886Z,41.05
2018-02-09T11:12:07.200Z,41.33
2018-02-09T11:14:34.790Z,40.10
2018-02-09T11:17:02.258Z,40.67
2018-02-09T11:19:29.773Z,40.05
2018-02-09T11:21:57.231Z,37.10
2018-02-09T11:24:24.696Z,39.92
2018-02-09T11:26:52.202Z,38.90
2018-02-09T11:29:19.655Z,40.08
2018-02-09T11:31:47.217Z,40.33
2018-02-09T11:34:14.687Z,38.33
2018-02-09T11:36:42.151Z,39.53
2018-02-09T11:39:09.661Z,39.03
2018-02-09T11:41:37.113Z,36.17
2018-02-09T11:44:04.573Z,38.28
2018-02-09T11:46:32.073Z,37.33
2018-02-09T11:49:00.332Z,37.22
2018-02-09T11:51:27.812Z,37.95
2018-02-09T11:53:55.267Z,38.70
2018-02-09T11:56:22.787Z,35.97
2018-02-09T11:58:50.204Z,37.35
2018-02-09T12:01:17.688Z,39.20
2018-02-09T12:03:45.667Z,35.35
2018-02-09T12:06:13.152Z,36.03
2018-02-09T12:08:40.648Z,32.58
2018-02-09T12:11:08.201Z,33.45
2018-02-09T12:13:35.659Z,32.88
2018-02-09T12:16:03.117Z,31.92
2018-02-09T12:18:30.610Z,29.30
2018-02-09T12:20:58.105Z,28.15
2018-02-09T12:23:25.573Z,29.80
2018-02-09T12:25:53.060Z,32.60
2018-02-09T12:28:20.539Z,30.92
2018-02-09T12:30:47.987Z,30.00
2018-02-09T12:33:15.450Z,29.92
2018-02-09T12:35:43.055Z,28.40
2018-02-09T12:38:10.509Z,27.48
2018-02-09T12:40:37.971Z,29.85
2018-02-09T12:43:05.430Z,24.25
2018-02-09T12:45:33.708Z,23.65
2018-02-09T12:48:01.220Z,26.83
2018-02-09T12:50:29.459Z,28.15
2018-02-09T12:52:56.903Z,26.10
2018-02-09T12:55:24.378Z,28.48
2018-02-09T12:57:51.890Z,26.77
2018-02-09T13:00:19.373Z,25.30
2018-02-09T13:02:46.885Z,28.52
2018-02-09T13:05:15.125Z,28.10
2018-02-09T13:07:42.630Z,30.60
2018-02-09T13:10:10.083Z,31.45
2018-02-09T13:12:49.351Z,30.42
2018-02-09T13:15:16.874Z,31.73
2018-02-09T13:17:45.150Z,30.33
2018-02-09T13:20:13.392Z,28.58
2018-02-09T13:22:52.642Z,29.63
2018-02-09T13:25:20.088Z,30.42
2018-02-09T13:27:47.589Z,32.08
2018-02-09T13:30:15.110Z,33.03
2018-02-09T13:32:55.232Z,29.83
2018-02-09T13:35:22.689Z,31.10
2018-02-09T13:37:50.203Z,32.72
2018-02-09T13:40:17.628Z,35.13
2018-02-09T13:42:45.174Z,31.23
2018-02-09T13:45:12.634Z,31.92
2018-02-09T13:47:40.083Z,29.55
2018-02-09T13:50:07.588Z,31.98
2018-02-09T13:52:35.118Z,31.15
2018-02-09T13:55:03.428Z,29.27
2018-02-09T13:57:30.922Z,32.63
2018-02-09T13:59:58.388Z,34.83
2018-02-09T14:02:25.832Z,35.15
2018-02-09T14:04:53.301Z,33.10
2018-02-09T14:07:20.765Z,32.45
2018-02-09T14:09:48.241Z,35.75
2018-02-09T14:12:16.439Z,32.13
2018-02-09T14:14:43.916Z,32.33
2018-02-09T14:17:11.414Z,33.15
2018-02-09T14:19:39.751Z,31.45
2018-02-09T14:22:07.254Z,35.42
2018-02-09T14:24:34.765Z,32.50
2018-02-09T14:27:02.327Z,33.97
2018-02-09T14:29:29.805Z,32.53
2018-02-09T14:31:57.230Z,32.38
2018-02-09T14:34:24.717Z,30.45
2018-02-09T14:36:52.195Z,35.40
2018-02-09T14:39:20.450Z,34.33
2018-02-09T14:41:47.994Z,33.00
2018-02-09T14:44:15.461Z,33.45
2018-02-09T14:46:43.005Z,32.30
2018-02-09T14:49:10.448Z,31.65
2018-02-09T14:51:37.926Z,30.02
2018-02-09T14:54:05.433Z,33.33
2018-02-09T14:56:33.674Z,31.95
2018-02-09T14:59:01.268Z,34.15
2018-02-09T15:01:28.740Z,34.15
2018-02-09T15:03:56.202Z,31.60
2018-02-09T15:06:23.659Z,33.53
2018-02-09T15:08:51.136Z,29.85
2018-02-09T15:11:18.605Z,31.08
2018-02-09T15:13:46.098Z,32.80
2018-02-09T15:16:13.575Z,30.50
2018-02-09T15:18:41.139Z,30.50
2018-02-09T15:21:08.595Z,31.58
2018-02-09T15:23:36.071Z,30.92
2018-02-09T15:26:03.568Z,33.17
2018-02-09T15:40:20.739Z,30.62
2018-02-09T15:42:56.511Z,29.70
2018-02-09T15:45:24.072Z,31.40
2018-02-09T15:47:52.365Z,30.23
2018-02-09T15:59:13.686Z,26.45
2018-02-09T16:01:41.204Z,27.75
2018-02-09T16:04:08.759Z,28.92
2018-02-09T16:06:36.838Z,28.40
2018-02-09T16:09:04.312Z,31.08
2018-02-09T16:11:36.246Z,27.30
2018-02-09T16:14:04.586Z,27.27
2018-02-09T16:16:32.178Z,29.52
2018-02-09T16:19:05.295Z,29.67
2018-02-09T16:21:52.119Z,28.52
2018-02-09T16:24:19.658Z,28.15
2018-02-09T16:26:47.164Z,30.75
2018-02-09T16:29:22.234Z,26.17
2018-02-09T16:31:49.750Z,29.73
2018-02-09T16:34:17.267Z,29.33
2018-02-09T16:36:44.848Z,28.58
2018-02-09T16:39:12.329Z,28.60
2018-02-09T16:41:39.851Z,25.45
2018-02-09T16:44:07.414Z,29.52
2018-02-09T16:46:36.290Z,30.88
2018-02-09T16:49:03.802Z,29.70
2018-02-09T16:51:31.310Z,27.08
2018-02-09T16:53:58.849Z,28.23
2018-02-09T16:56:27.221Z,28.52
2018-02-09T16:58:54.768Z,27.50
2018-02-09T17:01:22.221Z,29.20
2018-02-09T17:03:49.712Z,29.30
2018-02-09T17:09:24.619Z,23.70
2018-02-09T17:11:52.173Z,26.27
2018-02-09T17:14:19.810Z,29.50
2018-02-09T17:16:47.505Z,30.83
2018-02-09T17:19:15.057Z,29.67
2018-02-09T17:21:43.323Z,31.70
2018-02-09T17:24:10.869Z,31.83
2018-02-09T17:26:38.355Z,34.08
2018-02-09T17:29:05.905Z,28.95
2018-02-09T17:31:33.404Z,32.70
2018-02-09T17:34:00.908Z,31.95
2018-02-09T17:36:28.366Z,32.08
2018-02-09T17:38:55.840Z,34.20
2018-02-09T17:41:23.374Z,31.60
2018-02-09T17:43:50.853Z,27.80
2018-02-09T17:46:18.505Z,28.42
2018-02-09T17:48:45.971Z,30.40
2018-02-09T17:51:14.251Z,32.15
2018-02-09T17:53:42.506Z,29.60
2018-02-09T17:56:09.988Z,28.85
2018-02-09T17:58:37.484Z,31.55
2018-02-09T18:01:04.963Z,33.50
2018-02-09T18:03:32.474Z,28.83
2018-02-09T18:06:00.691Z,29.25
2018-02-09T18:08:28.236Z,28.55
2018-02-09T18:10:56.485Z,30.10
2018-02-09T18:13:24.000Z,31.00
2018-02-09T18:15:52.298Z,27.13
2018-02-09T18:18:20.523Z,29.00
2018-02-09T18:20:48.017Z,29.73
2018-02-09T18:23:15.471Z,31.70
2018-02-09T18:25:42.960Z,31.02
2018-02-09T18:28:10.511Z,31.75
2018-02-09T18:30:37.987Z,27.37
2018-02-09T18:33:05.483Z,30.05
2018-02-09T18:35:32.988Z,29.40
2018-02-09T18:38:00.578Z,32.80
2018-02-09T18:40:28.089Z,28.27
2018-02-09T18:42:55.589Z,31.40
2018-02-09T18:45:23.015Z,28.73
2018-02-09T18:47:51.251Z,32.92
2018-02-09T18:50:18.852Z,28.25
2018-02-09T18:52:46.363Z,28.60
2018-02-09T18:55:13.844Z,28.20
2018-02-09T18:57:42.055Z,31.20
2018-02-09T19:00:09.575Z,28.40
2018-02-09T19:02:37.194Z,29.40
2018-02-09T19:05:04.672Z,28.15
2018-02-09T19:07:32.195Z,30.23
2018-02-09T19:09:59.748Z,28.15
2018-02-09T19:12:27.356Z,29.08
2018-02-09T19:14:54.884Z,27.10
2018-02-09T19:17:22.376Z,28.48
2018-02-09T19:19:49.948Z,28.83
2018-02-09T19:22:18.193Z,28.85
2018-02-09T19:24:45.815Z,30.62
2018-02-09T19:27:13.344Z,28.15
2018-02-09T19:29:44.801Z,28.95
2018-02-09T19:32:12.308Z,27.83
2018-02-09T19:34:40.961Z,32.13
2018-02-09T19:37:08.485Z,28.10
2018-02-09T19:39:36.697Z,30.37
2018-02-09T19:42:04.231Z,28.58
2018-02-09T19:44:31.699Z,30.15
2018-02-09T19:46:59.171Z,29.40
2018-02-09T19:49:27.297Z,28.52
2018-02-09T19:51:55.610Z,29.02
2018-02-09T19:54:23.082Z,26.98
2018-02-09T19:56:50.588Z,29.15
2018-02-09T19:59:18.116Z,25.83
2018-02-09T20:01:47.210Z,29.35
2018-02-09T20:04:14.715Z,30.23
2018-02-09T20:06:42.320Z,26.50
2018-02-09T20:09:11.396Z,27.20
2018-02-09T20:11:39.677Z,27.50
2018-02-09T20:14:07.209Z,30.20
2018-02-09T20:16:34.786Z,27.60
2018-02-09T20:19:02.297Z,27.77
2018-02-09T20:21:29.840Z,26.52
2018-02-09T20:23:57.361Z,29.02
2018-02-09T20:26:25.716Z,29.25
2018-02-09T20:28:53.160Z,27.67
2018-02-09T20:31:20.658Z,24.48
2018-02-09T20:33:48.132Z,27.05
2018-02-09T20:36:15.688Z,27.08
2018-02-09T20:38:43.247Z,26.12
2018-02-09T20:41:10.739Z,26.95
2018-02-09T20:43:38.226Z,26.25
2018-02-09T20:46:05.708Z,28.17
2018-02-09T20:48:33.801Z,28.23
2018-02-09T20:51:01.270Z,26.05
2018-02-09T20:53:28.789Z,28.25
2018-02-09T20:55:56.248Z,25.50
2018-02-09T20:58:23.743Z,27.40
2018-02-09T21:00:51.200Z,26.95
2018-02-09T21:03:18.927Z,24.92
2018-02-09T21:05:47.168Z,24.23
2018-02-09T21:08:14.894Z,25.62
2018-02-09T21:10:42.355Z,22.52
2018-02-09T21:13:14.460Z,24.25
2018-02-09T21:15:41.996Z,23.90
2018-02-09T21:18:09.481Z,24.52
2018-02-09T21:20:37.758Z,26.00
2018-02-09T21:23:09.280Z,24.25
2018-02-09T21:25:36.964Z,25.25
2018-02-09T21:28:06.153Z,23.80
2018-02-09T21:30:34.658Z,21.92
2018-02-09T21:33:06.694Z,23.52
2018-02-09T21:35:34.181Z,24.92
2018-02-09T21:38:01.669Z,25.10
2018-02-09T21:40:29.161Z,24.87
2018-02-09T21:42:56.644Z,26.33
2018-02-09T21:45:24.890Z,28.25
2018-02-09T21:47:52.695Z,25.17
2018-02-09T21:50:20.242Z,30.00
2018-02-09T21:52:47.765Z,26.45
2018-02-09T21:55:20.478Z,26.62
2018-02-09T21:57:47.977Z,29.17
2018-02-09T22:00:23.337Z,30.08
2018-02-09T22:02:50.811Z,30.37
2018-02-09T22:05:18.295Z,30.00
2018-02-09T22:07:46.481Z,29.37
2018-02-09T22:10:14.000Z,29.02
2018-02-09T22:12:42.356Z,27.92
2018-02-09T22:15:09.880Z,27.35
2018-02-09T22:17:37.393Z,29.05
2018-02-09T22:20:04.952Z,26.20
2018-02-09T22:22:32.681Z,27.25
2018-02-09T22:25:00.276Z,29.20
2018-02-09T22:27:28.908Z,33.20
2018-02-09T22:29:58.329Z,29.87
2018-02-09T22:32:26.687Z,28.87
2018-02-09T22:34:54.148Z,27.60
2018-02-09T22:37:21.590Z,27.50
2018-02-09T22:39:49.182Z,32.78
2018-02-09T22:42:18.628Z,29.58
2018-02-09T22:44:46.121Z,30.37
2018-02-09T22:47:13.695Z,29.77
2018-02-09T22:49:41.202Z,29.15
2018-02-09T22:52:08.756Z,31.73
2018-02-09T22:54:36.207Z,32.55
2018-02-09T22:57:04.634Z,26.90
2018-02-09T22:59:32.952Z,28.23
2018-02-09T23:02:00.475Z,28.20
2018-02-09T23:04:27.964Z,26.10
2018-02-09T23:06:56.308Z,28.73
2018-02-09T23:09:23.744Z,29.80
2018-02-09T23:11:51.283Z,30.80
2018-02-09T23:14:18.813Z,30.08
2018-02-09T23:16:46.302Z,31.25
2018-02-09T23:19:13.766Z,30.88
2018-02-09T23:21:41.247Z,27.62
2018-02-09T23:24:08.840Z,29.33
2018-02-09T23:26:36.294Z,28.33
2018-02-09T23:29:03.783Z,28.95
2018-02-09T23:31:31.998Z,30.08
2018-02-09T23:33:59.476Z,29.60
2018-02-09T23:36:26.932Z,30.90
2018-02-09T23:38:54.403Z,31.45
2018-02-09T23:41:21.875Z,32.22
2018-02-09T23:43:49.331Z,28.30
2018-02-09T23:46:16.900Z,28.20
2018-02-09T23:48:44.387Z,27.30
2018-02-09T23:51:11.905Z,25.33
2018-02-09T23:53:39.435Z,25.85
2018-02-09T23:56:06.952Z,27.52
2018-02-09T23:58:34.501Z,26.33
